Willards, Maryland
Current Conditions -  °F | °C
As of 4:54 AM on Sunday 23 Nov 2014 (Local Time) from KSBY Reporting Station
Clear Clear  
Wind Chill: 32°   Ceiling: Unl
Heat Index: 38°   Visibility: 10mi
Dew Point: 29°   Wind: 8mph
Humidity: 70%   Direction: 200°SSW
Pressure: 30.25"   Gusts: NA
Location:  38.39°N, 75.35°W
Report Text: KSBY 230954Z AUTO 20007KT 10SM CLR 03/M02 A3025 RMK AO2 SLP247 T00331017
Loading
Personal Weather Stations






























Interactive Weather Map New forecast layout! Learn more

10-Day Weather Forecast

Advertisements
Track Severe Weather on mobile